Time;durP1;ratioP1;P1;durP2;ratioP2;P2;SDS_P1;SDS_P2;PMS_P1;PMS_P2;Temp;Humidity;BMP_temperature;BMP_pressure;BME280_temperature;BME280_humidity;BME280_pressure;Samples;Min_cycle;Max_cycle;Signal;HPM_P1;HPM_P2
2024/01/29 00:00:59;;;;;;;10.23;2.90;;;;;;;7.94;100.00;100738.66;4951517;28;20039;-85
2024/01/29 00:03:29;;;;;;;13.30;3.00;;;;;;;7.97;100.00;100748.13;4952341;28;20046;-85
2024/01/29 00:06:05;;;;;;;12.88;2.33;;;;;;;7.88;100.00;100743.56;4924052;28;20066;-86
2024/01/29 00:08:44;;;;;;;;;;;;;;;;;;;;;
2024/01/29 00:11:28;;;;;;;11.75;2.58;;;;;;;7.90;100.00;100754.81;4970006;28;20039;-86
2024/01/29 00:14:12;;;;;;;;;;;;;;;;;;;;;
2024/01/29 00:51:13;;;;;;;10.10;1.80;;;;;;;6.76;100.00;100785.06;4768283;30;20085;-89
2024/01/29 01:24:09;;;;;;;;;;;;;;;;;;;;;
2024/01/29 01:31:39;;;;;;;16.23;1.98;;;;;;;5.96;100.00;100813.31;4866044;29;20052;-87
2024/01/29 01:39:13;;;;;;;;;;;;;;;;;;;;;
2024/01/29 01:55:43;;;;;;;15.25;1.95;;;;;;;5.86;100.00;100825.41;4933347;29;20126;-88
2024/01/29 02:33:57;;;;;;;9.10;1.75;;;;;;;5.31;100.00;100835.06;4918216;29;20054;-90
2024/01/29 02:37:13;;;;;;;8.60;1.45;;;;;;;5.33;100.00;100843.66;4954020;28;20743;-90
2024/01/29 02:45:03;;;;;;;7.43;1.27;;;;;;;5.49;100.00;100849.69;4968118;28;20045;-89
2024/01/29 02:47:45;;;;;;;;;;;;;;;;;;;;;
2024/01/29 02:54:45;;;;;;;9.48;1.52;;;;;;;5.49;100.00;100834.78;4975634;28;20038;-90
2024/01/29 03:01:45;;;;;;;10.93;1.75;;;;;;;5.51;100.00;100830.25;4923746;29;20127;-90
2024/01/29 03:31:21;;;;;;;11.27;1.27;;;;;;;4.90;100.00;100817.59;4942470;28;20125;-90
2024/01/29 03:46:58;;;;;;;10.52;1.60;;;;;;;4.70;100.00;100851.13;4972236;28;20030;-91
2024/01/29 03:49:25;;;;;;;18.30;1.92;;;;;;;4.63;100.00;100857.69;4956839;28;20035;-90
2024/01/29 03:52:13;;;;;;;6.88;1.05;;;;;;;4.58;100.00;100850.13;4940837;28;20153;-90
2024/01/29 03:54:42;;;;;;;7.72;1.10;;;;;;;4.65;100.00;100856.66;4930561;28;20082;-92
2024/01/29 03:57:21;;;;;;;10.32;2.33;;;;;;;4.63;100.00;100852.44;4944768;28;20031;-92
2024/01/29 04:00:11;;;;;;;7.93;1.33;;;;;;;4.68;100.00;100853.00;4920567;28;20042;-91
2024/01/29 04:02:42;;;;;;;9.50;1.90;;;;;;;4.67;100.00;100849.53;4956250;28;20481;-91
2024/01/29 04:05:09;;;;;;;7.90;1.13;;;;;;;4.63;100.00;100842.81;4939644;28;20043;-90
2024/01/29 04:07:50;;;;;;;5.75;0.88;;;;;;;4.71;100.00;100845.78;4942938;28;20484;-90
2024/01/29 04:10:25;;;;;;;6.38;1.10;;;;;;;4.72;100.00;100842.25;4920208;28;20204;-89
2024/01/29 04:13:16;;;;;;;8.48;2.00;;;;;;;4.70;100.00;100831.03;4926784;28;20042;-90
2024/01/29 04:15:42;;;;;;;8.52;1.23;;;;;;;4.60;100.00;100829.94;4957837;28;20441;-89
2024/01/29 04:18:10;;;;;;;7.47;2.13;;;;;;;4.54;100.00;100828.50;4944633;28;20574;-89
2024/01/29 04:20:36;;;;;;;8.25;2.03;;;;;;;4.54;100.00;100835.56;4948560;28;20054;-89
2024/01/29 04:23:02;;;;;;;9.65;1.20;;;;;;;4.53;100.00;100845.16;4937437;28;20497;-89
2024/01/29 04:25:53;;;;;;;7.13;1.38;;;;;;;4.55;100.00;100831.97;4942907;28;20038;-90
2024/01/29 04:28:19;;;;;;;11.55;1.48;;;;;;;4.51;100.00;100840.97;4945113;29;20027;-88
2024/01/29 04:30:44;;;;;;;9.75;1.30;;;;;;;4.45;100.00;100837.78;4974521;28;20034;-90
2024/01/29 04:33:10;;;;;;;17.00;1.42;;;;;;;4.33;100.00;100828.91;4944525;28;20058;-89
2024/01/29 04:35:36;;;;;;;15.07;2.10;;;;;;;4.29;100.00;100830.03;4941876;28;20034;-89
2024/01/29 04:38:05;;;;;;;11.75;1.25;;;;;;;4.34;100.00;100832.38;4939451;28;20039;-89
2024/01/29 04:40:39;;;;;;;8.68;1.60;;;;;;;4.31;100.00;100832.56;4926281;28;20569;-90
2024/01/29 04:44:03;;;;;;;17.27;2.05;;;;;;;4.33;100.00;100852.47;4962689;28;20042;-90
2024/01/29 04:46:30;;;;;;;7.70;1.10;;;;;;;4.29;100.00;100847.50;4947351;28;20039;-89
2024/01/29 04:48:59;;;;;;;11.90;1.17;;;;;;;4.36;100.00;100854.06;4935292;28;20031;-88
2024/01/29 04:51:26;;;;;;;10.45;1.77;;;;;;;4.30;100.00;100859.69;4944611;28;20038;-89
2024/01/29 04:53:52;;;;;;;9.48;1.20;;;;;;;4.29;100.00;100871.91;4937413;28;20105;-90
2024/01/29 04:56:23;;;;;;;12.27;2.10;;;;;;;4.26;100.00;100859.00;4963077;28;20038;-89
2024/01/29 04:58:52;;;;;;;9.55;2.00;;;;;;;4.28;100.00;100867.63;4947912;28;20039;-90
2024/01/29 05:01:46;;;;;;;10.13;1.40;;;;;;;4.15;100.00;100851.81;4945559;28;20103;-88
2024/01/29 05:04:18;;;;;;;11.85;1.92;;;;;;;4.22;100.00;100862.75;4951859;28;20038;-90
2024/01/29 05:07:05;;;;;;;6.40;1.00;;;;;;;4.16;100.00;100858.72;4940085;28;20038;-89
2024/01/29 05:09:31;;;;;;;6.78;1.02;;;;;;;4.14;100.00;100852.72;4922103;28;20096;-90
2024/01/29 05:12:10;;;;;;;12.32;1.38;;;;;;;4.13;100.00;100842.34;4961713;28;20038;-89
2024/01/29 05:14:36;;;;;;;8.40;1.42;;;;;;;4.11;100.00;100850.28;4955174;28;20094;-89
2024/01/29 05:17:02;;;;;;;7.85;1.25;;;;;;;4.05;100.00;100861.97;4939013;28;20034;-88
2024/01/29 05:19:28;;;;;;;8.73;1.10;;;;;;;4.02;100.00;100871.78;4954962;28;20035;-89
2024/01/29 05:22:05;;;;;;;8.05;1.05;;;;;;;3.98;100.00;100876.38;4931861;28;20737;-88
2024/01/29 05:25:11;;;;;;;12.30;1.58;;;;;;;3.93;100.00;100876.63;4871306;28;20044;-89
2024/01/29 05:27:44;;;;;;;8.35;1.00;;;;;;;3.82;100.00;100876.41;4946384;28;20089;-89
2024/01/29 05:30:10;;;;;;;4.10;0.77;;;;;;;3.86;100.00;100875.31;4933637;28;20043;-88
2024/01/29 05:33:06;;;;;;;7.97;1.10;;;;;;;3.83;100.00;100867.63;4954464;28;20097;-90
2024/01/29 05:35:32;;;;;;;7.45;1.10;;;;;;;3.74;100.00;100871.63;4959618;28;20559;-88
2024/01/29 05:38:50;;;;;;;5.60;0.93;;;;;;;3.80;100.00;100881.75;4928605;28;20046;-90
2024/01/29 05:41:32;;;;;;;7.38;1.25;;;;;;;3.72;100.00;100870.88;4932302;28;20053;-88
2024/01/29 05:44:01;;;;;;;11.77;2.88;;;;;;;3.68;100.00;100879.84;4933158;28;20038;-89
2024/01/29 05:46:26;;;;;;;9.60;1.08;;;;;;;3.65;100.00;100877.38;4956335;28;20363;-89
2024/01/29 05:48:52;;;;;;;8.13;0.90;;;;;;;3.55;100.00;100877.91;4952486;28;20031;-88
2024/01/29 05:51:31;;;;;;;6.03;1.25;;;;;;;3.55;100.00;100864.84;4938656;28;20173;-88
2024/01/29 05:54:00;;;;;;;7.63;1.58;;;;;;;3.50;100.00;100877.34;4954415;28;20511;-88
2024/01/29 05:56:26;;;;;;;9.30;1.10;;;;;;;3.52;100.00;100878.09;4937023;28;20608;-87
2024/01/29 05:58:51;;;;;;;4.03;0.40;;;;;;;3.32;100.00;100874.84;4959565;28;20039;-86
2024/01/29 06:01:17;;;;;;;2.78;0.50;;;;;;;3.19;100.00;100876.44;4953177;28;20027;-89
2024/01/29 06:03:43;;;;;;;6.30;1.00;;;;;;;3.17;100.00;100875.72;4937713;28;20039;-88
2024/01/29 06:06:09;;;;;;;6.53;0.55;;;;;;;3.14;100.00;100884.53;4942852;28;20041;-88
2024/01/29 06:08:34;;;;;;;8.02;0.85;;;;;;;3.04;100.00;100888.59;4930084;28;20042;-87
2024/01/29 06:11:00;;;;;;;5.93;0.98;;;;;;;3.00;100.00;100880.09;4941180;28;20042;-88
2024/01/29 06:13:27;;;;;;;5.53;0.93;;;;;;;3.02;100.00;100883.47;4941364;28;20517;-88
2024/01/29 06:15:53;;;;;;;4.10;0.90;;;;;;;2.96;100.00;100874.19;4945493;28;20040;-89
2024/01/29 06:18:19;;;;;;;5.97;1.05;;;;;;;2.92;100.00;100880.50;4952641;28;20474;-88
2024/01/29 06:20:44;;;;;;;6.53;0.88;;;;;;;2.90;100.00;100881.53;4950816;28;20146;-88
2024/01/29 06:23:12;;;;;;;5.28;1.65;;;;;;;2.87;100.00;100885.13;4950142;28;20054;-88
2024/01/29 06:25:38;;;;;;;6.82;1.05;;;;;;;2.91;100.00;100883.19;4935134;29;20066;-88
2024/01/29 06:28:05;;;;;;;3.40;0.63;;;;;;;2.88;100.00;100886.81;4932335;28;20039;-88
2024/01/29 06:30:33;;;;;;;6.35;0.80;;;;;;;2.87;100.00;100889.53;4956948;28;20034;-89
2024/01/29 06:32:59;;;;;;;5.35;1.02;;;;;;;2.83;100.00;100892.31;4920127;28;20051;-87
2024/01/29 06:35:24;;;;;;;5.15;0.60;;;;;;;2.83;100.00;100897.53;4933288;28;20058;-88
2024/01/29 06:37:50;;;;;;;1.63;0.50;;;;;;;2.85;100.00;100900.88;4914357;29;20035;-88
2024/01/29 06:40:16;;;;;;;6.72;1.02;;;;;;;2.87;100.00;100894.75;4920458;29;20053;-88
2024/01/29 06:42:42;;;;;;;2.20;0.90;;;;;;;2.84;100.00;100885.28;4918433;28;20481;-89
2024/01/29 06:45:10;;;;;;;2.65;0.57;;;;;;;2.85;100.00;100894.81;4936437;28;20095;-89
2024/01/29 06:47:36;;;;;;;5.90;0.70;;;;;;;2.81;100.00;100901.13;4906543;29;20059;-87
2024/01/29 06:50:04;;;;;;;5.22;0.88;;;;;;;2.84;100.00;100908.78;4920270;28;20051;-90
2024/01/29 06:52:30;;;;;;;3.83;0.60;;;;;;;2.84;100.00;100914.88;4922519;29;20039;-87
2024/01/29 06:54:56;;;;;;;1.65;0.22;;;;;;;2.81;100.00;100920.25;4895286;28;20497;-88
2024/01/29 06:57:24;;;;;;;3.97;0.65;;;;;;;2.80;100.00;100918.53;4938681;29;20046;-88
2024/01/29 06:59:50;;;;;;;6.63;0.77;;;;;;;2.84;100.00;100914.00;4923039;29;20031;-88
2024/01/29 07:02:16;;;;;;;5.88;1.17;;;;;;;2.81;100.00;100924.63;4921349;29;20034;-89
2024/01/29 07:04:42;;;;;;;6.68;0.90;;;;;;;2.86;100.00;100914.78;4920866;29;20138;-89
2024/01/29 07:07:08;;;;;;;5.28;0.85;;;;;;;2.88;100.00;100909.47;4930730;28;20050;-89
2024/01/29 07:09:34;;;;;;;5.45;1.27;;;;;;;2.94;100.00;100912.59;4950833;28;20027;-89
2024/01/29 07:12:00;;;;;;;5.72;1.08;;;;;;;2.98;100.00;100918.47;4905687;28;20038;-89
2024/01/29 07:14:26;;;;;;;8.85;1.25;;;;;;;2.98;100.00;100913.25;4917674;29;20050;-89
2024/01/29 07:17:08;;;;;;;8.98;2.42;;;;;;;3.06;100.00;100920.69;4933495;28;20039;-87
2024/01/29 07:19:34;;;;;;;4.25;0.93;;;;;;;3.03;100.00;100921.69;4921244;28;20051;-90
2024/01/29 07:22:04;;;;;;;8.00;2.05;;;;;;;3.06;100.00;100931.97;4953911;28;20098;-89
2024/01/29 07:24:36;;;;;;;5.53;1.20;;;;;;;3.09;100.00;100931.81;4935187;28;20050;-88
2024/01/29 07:27:08;;;;;;;6.13;1.50;;;;;;;3.14;100.00;100928.13;4936263;28;20101;-88
2024/01/29 07:29:58;;;;;;;6.25;1.83;;;;;;;3.12;100.00;100919.50;4939626;28;20034;-96
2024/01/29 07:32:35;;;;;;;5.32;1.17;;;;;;;3.13;100.00;100924.66;4931044;28;20370;-96
2024/01/29 07:35:47;;;;;;;3.67;0.90;;;;;;;3.10;100.00;100923.06;4949817;28;20042;-96
2024/01/29 07:38:22;;;;;;;5.30;1.00;;;;;;;3.07;100.00;100922.38;4959411;28;20046;-96
2024/01/29 07:40:58;;;;;;;7.93;1.77;;;;;;;3.16;100.00;100924.50;4922037;28;20067;-96
2024/01/29 07:43:26;;;;;;;6.55;1.98;;;;;;;3.10;100.00;100927.44;4966242;28;20054;-95
2024/01/29 07:45:54;;;;;;;4.22;1.10;;;;;;;3.12;100.00;100936.03;4948067;28;20050;-96
2024/01/29 07:48:21;;;;;;;7.15;1.48;;;;;;;3.14;100.00;100942.00;4944968;28;20031;-96
2024/01/29 07:50:56;;;;;;;7.43;1.73;;;;;;;3.20;100.00;100935.63;4922331;29;20339;-96
2024/01/29 07:53:25;;;;;;;10.55;1.85;;;;;;;3.16;100.00;100937.56;4936332;28;20035;-96
2024/01/29 07:55:54;;;;;;;8.40;1.33;;;;;;;3.20;100.00;100930.41;4946662;28;20062;-95
2024/01/29 07:58:23;;;;;;;6.35;1.45;;;;;;;3.19;100.00;100931.31;4960331;28;20078;-89
2024/01/29 08:00:55;;;;;;;6.15;0.98;;;;;;;3.20;100.00;100933.84;4942519;28;20027;-96
2024/01/29 08:03:21;;;;;;;4.78;1.33;;;;;;;3.19;100.00;100932.16;4956148;28;20034;-96
2024/01/29 08:05:52;;;;;;;6.95;1.10;;;;;;;3.21;100.00;100951.22;4928217;28;20051;-96
2024/01/29 08:08:18;;;;;;;6.72;1.70;;;;;;;3.18;100.00;100951.38;4947098;28;20046;-96
2024/01/29 08:10:57;;;;;;;4.88;0.93;;;;;;;3.23;100.00;100953.75;4924780;28;20042;-95
2024/01/29 08:13:29;;;;;;;2.90;0.80;;;;;;;3.27;100.00;100955.25;4941579;28;20085;-96
2024/01/29 08:15:59;;;;;;;7.13;1.50;;;;;;;3.23;100.00;100958.97;4935703;28;20039;-96
2024/01/29 08:18:36;;;;;;;7.95;1.35;;;;;;;3.25;100.00;100967.53;4933026;28;20489;-96
2024/01/29 08:21:02;;;;;;;6.38;1.38;;;;;;;3.26;100.00;100964.03;4939891;28;20051;-96
2024/01/29 08:23:35;;;;;;;2.58;1.30;;;;;;;3.34;100.00;100968.81;4926633;28;20042;-96
2024/01/29 08:26:01;;;;;;;7.60;1.30;;;;;;;3.28;100.00;100963.94;4928065;28;20038;-96
2024/01/29 08:28:38;;;;;;;8.52;1.85;;;;;;;3.33;100.00;100964.50;4921601;28;20066;-96
2024/01/29 08:31:08;;;;;;;8.40;2.15;;;;;;;3.28;100.00;100959.53;4943335;28;20049;-96
2024/01/29 08:33:44;;;;;;;7.80;1.88;;;;;;;3.34;100.00;100961.81;4922192;28;20049;-96
2024/01/29 08:36:16;;;;;;;10.30;1.45;;;;;;;3.26;100.00;100968.41;4935950;28;20053;-96
2024/01/29 08:38:45;;;;;;;9.18;1.75;;;;;;;3.28;100.00;100974.38;4960364;28;20047;-96
2024/01/29 08:41:16;;;;;;;6.93;1.17;;;;;;;3.34;100.00;100981.88;4959039;28;20122;-92
2024/01/29 08:43:56;;;;;;;8.60;1.65;;;;;;;3.32;100.00;100966.28;4929529;28;20043;-96
2024/01/29 08:46:31;;;;;;;4.38;0.93;;;;;;;3.25;100.00;100969.34;4936953;28;20042;-96
2024/01/29 08:49:00;;;;;;;6.10;1.10;;;;;;;3.24;100.00;100958.03;4919888;28;20043;-96
2024/01/29 08:51:35;;;;;;;2.83;0.95;;;;;;;3.25;100.00;100957.09;4948854;28;20034;-96
2024/01/29 08:54:02;;;;;;;5.70;1.20;;;;;;;3.26;100.00;100964.03;4933482;28;20218;-96
2024/01/29 08:56:39;;;;;;;5.32;1.40;;;;;;;3.24;100.00;100944.97;4946407;28;20049;-96
2024/01/29 08:59:21;;;;;;;5.72;1.38;;;;;;;3.21;100.00;100955.59;4943526;28;20516;-96
2024/01/29 09:02:02;;;;;;;8.23;1.70;;;;;;;3.21;100.00;100960.81;4941640;29;20050;-96
2024/01/29 09:04:35;;;;;;;8.63;1.45;;;;;;;3.23;100.00;100972.03;4942848;28;20124;-96
2024/01/29 09:07:06;;;;;;;7.03;1.70;;;;;;;3.26;100.00;100973.63;4941546;28;20554;-96
2024/01/29 09:09:36;;;;;;;6.43;1.20;;;;;;;3.23;100.00;100966.81;4960938;28;20041;-96
2024/01/29 09:12:02;;;;;;;3.33;0.68;;;;;;;3.27;100.00;100968.31;4976874;28;20038;-96
2024/01/29 09:14:30;;;;;;;8.82;1.42;;;;;;;3.26;100.00;100969.25;4939592;28;20035;-96
2024/01/29 09:17:01;;;;;;;7.47;1.70;;;;;;;3.28;100.00;100979.63;4924387;28;20105;-96
2024/01/29 09:19:32;;;;;;;5.32;1.00;;;;;;;3.32;100.00;100971.53;4953999;28;20042;-96
2024/01/29 09:21:58;;;;;;;6.65;1.15;;;;;;;3.35;100.00;100970.50;4934358;28;20103;-89
2024/01/29 09:24:25;;;;;;;6.68;1.42;;;;;;;3.32;100.00;100957.59;4935489;28;20039;-89
2024/01/29 09:26:50;;;;;;;11.95;1.67;;;;;;;3.38;100.00;100972.94;4936149;28;20045;-90
2024/01/29 09:29:25;;;;;;;8.07;1.55;;;;;;;3.41;100.00;100962.31;4905769;28;20030;-89
2024/01/29 09:31:59;;;;;;;10.15;1.95;;;;;;;3.33;100.00;100947.06;4922873;28;20034;-92
2024/01/29 09:34:27;;;;;;;5.30;1.10;;;;;;;3.37;100.00;100936.44;4939944;29;20031;-90
2024/01/29 09:36:53;;;;;;;7.40;1.55;;;;;;;3.31;100.00;100945.47;4954340;28;20122;-90
2024/01/29 09:39:19;;;;;;;4.68;1.33;;;;;;;3.34;100.00;100953.97;4922725;28;20666;-92
2024/01/29 09:41:46;;;;;;;6.63;1.65;;;;;;;3.39;100.00;100961.59;4940859;29;20046;-90
2024/01/29 09:44:12;;;;;;;6.90;1.48;;;;;;;3.42;100.00;100966.63;4941438;29;20051;-90
2024/01/29 09:46:41;;;;;;;4.32;1.70;;;;;;;3.49;100.00;100972.34;4939965;29;20046;-90
2024/01/29 09:49:07;;;;;;;4.97;1.45;;;;;;;3.49;100.00;100961.06;4925205;29;20390;-90
2024/01/29 09:51:34;;;;;;;6.95;1.20;;;;;;;3.51;100.00;100944.38;4956927;29;20031;-89
2024/01/29 09:54:01;;;;;;;4.78;1.15;;;;;;;3.60;100.00;100966.53;4922246;28;20054;-89
2024/01/29 09:56:28;;;;;;;8.88;2.13;;;;;;;3.56;100.00;100954.56;4957303;28;20106;-90
2024/01/29 09:58:55;;;;;;;7.30;1.50;;;;;;;3.56;100.00;100962.41;4959655;28;20039;-88
2024/01/29 10:01:22;;;;;;;8.13;2.15;;;;;;;3.55;100.00;100964.16;4940936;29;20035;-89
2024/01/29 10:03:48;;;;;;;2.03;1.15;;;;;;;3.59;100.00;100973.53;4958123;28;20055;-89
2024/01/29 10:06:14;;;;;;;4.47;1.13;;;;;;;3.62;100.00;100963.81;4967780;28;20045;-90
2024/01/29 10:08:40;;;;;;;5.65;1.70;;;;;;;3.64;100.00;100970.66;4962323;28;20393;-89
2024/01/29 10:11:07;;;;;;;3.78;1.45;;;;;;;3.68;100.00;100973.97;4923282;29;20132;-90
2024/01/29 10:13:36;;;;;;;8.32;1.40;;;;;;;3.67;100.00;100973.09;4939605;29;20577;-90
2024/01/29 10:16:02;;;;;;;6.60;1.10;;;;;;;3.67;100.00;100978.34;4940504;28;20134;-90
2024/01/29 10:18:30;;;;;;;7.43;1.48;;;;;;;3.66;100.00;100973.19;4936884;28;20033;-89
2024/01/29 10:21:04;;;;;;;6.25;1.33;;;;;;;3.70;100.00;100980.78;4962631;28;20051;-91
2024/01/29 10:23:30;;;;;;;5.18;1.90;;;;;;;3.70;100.00;100986.00;4960141;28;20138;-90
2024/01/29 10:26:45;;;;;;;5.78;1.35;;;;;;;3.78;100.00;100997.78;4969521;28;20039;-90
2024/01/29 10:29:18;;;;;;;8.80;1.58;;;;;;;3.74;100.00;100994.53;4955270;28;20472;-90
2024/01/29 10:31:44;;;;;;;10.32;1.88;;;;;;;3.77;100.00;100996.97;4933009;28;20145;-88
2024/01/29 10:34:09;;;;;;;5.18;1.25;;;;;;;3.80;100.00;100994.19;4937055;28;20517;-91
2024/01/29 10:36:39;;;;;;;9.00;1.75;;;;;;;3.85;100.00;100991.31;4947028;28;20384;-89
2024/01/29 10:39:07;;;;;;;6.78;1.63;;;;;;;3.88;100.00;101001.59;4941214;28;20552;-90
2024/01/29 10:41:37;;;;;;;4.63;1.15;;;;;;;3.87;100.00;101004.28;4940657;28;20099;-92
2024/01/29 10:44:04;;;;;;;3.83;1.30;;;;;;;3.89;100.00;101002.41;4960750;28;20035;-90
2024/01/29 10:46:34;;;;;;;5.80;1.08;;;;;;;3.93;100.00;101004.81;4943285;28;20045;-91
2024/01/29 10:49:01;;;;;;;8.52;1.40;;;;;;;3.96;100.00;101007.25;4932241;28;20045;-89
2024/01/29 10:51:28;;;;;;;4.50;1.23;;;;;;;3.94;100.00;101005.63;4957940;28;20048;-90
2024/01/29 10:54:02;;;;;;;5.55;0.80;;;;;;;3.98;100.00;101001.91;4973171;28;20426;-91
2024/01/29 10:56:30;;;;;;;3.08;0.75;;;;;;;3.99;100.00;101008.81;4958486;28;20485;-90
2024/01/29 10:58:58;;;;;;;8.23;1.17;;;;;;;3.99;100.00;101016.69;4929680;28;20117;-90
2024/01/29 11:01:28;;;;;;;4.93;1.42;;;;;;;4.01;100.00;101006.97;4943065;28;20095;-93
2024/01/29 11:03:59;;;;;;;5.05;1.10;;;;;;;4.07;100.00;101011.00;4924850;28;20417;-89
2024/01/29 11:06:38;;;;;;;6.43;1.27;;;;;;;4.09;100.00;101011.78;4948643;28;20062;-90
2024/01/29 11:09:12;;;;;;;4.82;1.10;;;;;;;4.11;100.00;101011.69;4926032;28;20037;-90
2024/01/29 11:11:41;;;;;;;12.52;1.77;;;;;;;4.13;100.00;101007.19;4942642;28;20116;-91
2024/01/29 11:14:10;;;;;;;5.03;1.17;;;;;;;4.22;100.00;101014.53;4944309;28;20038;-90
2024/01/29 11:16:37;;;;;;;11.85;1.50;;;;;;;4.16;100.00;101007.00;4948798;29;20533;-91
2024/01/29 11:19:03;;;;;;;3.40;0.80;;;;;;;4.14;100.00;100999.25;4960619;28;20035;-91
2024/01/29 11:21:29;;;;;;;4.63;0.80;;;;;;;4.16;100.00;100979.06;4947320;28;20074;-90
2024/01/29 11:23:56;;;;;;;6.68;1.50;;;;;;;4.20;100.00;100990.22;4965863;28;20472;-89
2024/01/29 11:26:25;;;;;;;6.45;1.40;;;;;;;4.24;100.00;100993.50;4945776;28;20144;-92
2024/01/29 11:29:01;;;;;;;4.75;1.55;;;;;;;4.25;100.00;100995.19;4928715;28;20106;-92
2024/01/29 11:31:45;;;;;;;5.82;1.00;;;;;;;4.31;100.00;100985.19;4940361;28;20049;-91
2024/01/29 11:34:15;;;;;;;4.30;1.27;;;;;;;4.27;100.00;100980.25;4963492;28;20505;-91
2024/01/29 11:36:40;;;;;;;5.03;1.13;;;;;;;4.27;100.00;100975.00;4966525;28;20035;-90
2024/01/29 11:39:08;;;;;;;7.10;1.15;;;;;;;4.30;100.00;100988.72;4956829;28;20077;-89
2024/01/29 11:41:36;;;;;;;4.35;1.13;;;;;;;4.25;100.00;100976.84;4921783;28;20110;-90
2024/01/29 11:44:02;;;;;;;6.22;1.23;;;;;;;4.25;100.00;100976.84;4957106;28;20142;-92
2024/01/29 11:46:31;;;;;;;5.35;1.48;;;;;;;4.36;100.00;100978.84;4945650;28;20598;-91
2024/01/29 11:48:58;;;;;;;6.28;1.42;;;;;;;4.27;100.00;100970.59;4954725;28;20086;-90
2024/01/29 11:51:27;;;;;;;7.28;1.35;;;;;;;4.38;100.00;100966.50;4953433;28;20039;-90
2024/01/29 11:54:46;;;;;;;8.50;1.02;;;;;;;4.39;100.00;100968.19;4955618;28;20042;-92
2024/01/29 11:57:14;;;;;;;10.52;1.60;;;;;;;4.38;100.00;100971.75;4944255;28;20472;-91
2024/01/29 12:00:19;;;;;;;5.82;1.38;;;;;;;4.39;100.00;100955.09;4952427;28;20408;-87
2024/01/29 12:02:54;;;;;;;2.55;0.95;;;;;;;4.47;100.00;100960.72;4925325;28;20046;-91
2024/01/29 12:05:40;;;;;;;5.10;0.98;;;;;;;4.43;100.00;100962.69;4953531;28;20054;-90
2024/01/29 12:08:38;;;;;;;9.45;1.10;;;;;;;4.55;100.00;100968.97;4950187;28;20042;-89
2024/01/29 12:11:12;;;;;;;6.22;1.38;;;;;;;4.49;100.00;100951.00;4941386;28;20385;-90
2024/01/29 12:17:56;;;;;;;4.30;1.15;;;;;;;4.58;100.00;100952.22;4896447;29;20043;-91
2024/01/29 12:20:39;;;;;;;6.88;0.90;;;;;;;4.58;100.00;100957.47;4902993;29;20059;-91
2024/01/29 12:23:08;;;;;;;4.45;0.63;;;;;;;4.53;100.00;100943.81;4950453;28;20047;-91
2024/01/29 12:25:54;;;;;;;5.35;0.90;;;;;;;4.53;100.00;100939.41;4934894;29;20031;-91
2024/01/29 12:28:54;;;;;;;3.97;0.65;;;;;;;4.57;100.00;100950.56;4925201;28;20042;-91
2024/01/29 12:31:21;;;;;;;10.02;1.38;;;;;;;4.66;100.00;100952.63;4907993;28;20397;-92
2024/01/29 12:33:52;;;;;;;8.35;1.23;;;;;;;4.78;100.00;100956.25;4935442;28;20102;-93
2024/01/29 12:36:20;;;;;;;8.50;1.13;;;;;;;4.72;100.00;100941.75;4908254;29;20066;-89
2024/01/29 12:38:58;;;;;;;13.18;2.35;;;;;;;4.86;100.00;100947.09;4923490;28;20078;-93
2024/01/29 12:41:37;;;;;;;6.90;1.23;;;;;;;4.87;100.00;100946.16;4939835;29;20046;-92
2024/01/29 12:44:10;;;;;;;6.63;0.90;;;;;;;4.86;100.00;100947.91;4936445;28;20077;-92
2024/01/29 12:46:39;;;;;;;3.05;0.82;;;;;;;4.81;100.00;100945.59;4907255;28;20974;-92
2024/01/29 12:49:05;;;;;;;6.85;1.50;;;;;;;4.89;100.00;100952.16;4924145;28;20436;-90
2024/01/29 12:51:32;;;;;;;7.10;0.90;;;;;;;4.93;100.00;100966.72;4931367;28;20046;-89
2024/01/29 12:54:30;;;;;;;6.28;1.23;;;;;;;4.84;100.00;100949.81;4937111;28;20126;-88
2024/01/29 12:56:56;;;;;;;8.82;1.10;;;;;;;4.83;100.00;100951.56;4885330;28;20067;-89
2024/01/29 13:03:39;;;;;;;4.30;1.08;;;;;;;4.77;100.00;100943.25;4958820;28;20062;-94
2024/01/29 13:06:50;;;;;;;5.38;0.90;;;;;;;4.85;100.00;100943.63;4937514;29;20151;-89
2024/01/29 13:09:26;;;;;;;4.82;1.23;;;;;;;4.86;100.00;100945.28;4956848;28;20043;-93
2024/01/29 13:11:55;;;;;;;7.68;1.20;;;;;;;4.85;100.00;100933.16;4918565;29;20296;-89
2024/01/29 13:14:47;;;;;;;7.65;1.10;;;;;;;4.91;100.00;100935.38;4900822;28;20038;-91
2024/01/29 13:17:39;;;;;;;5.68;1.10;;;;;;;4.95;100.00;100928.19;4945333;28;20055;-90
2024/01/29 13:20:11;;;;;;;6.75;0.98;;;;;;;4.99;100.00;100928.81;4939725;28;20050;-88
2024/01/29 13:22:40;;;;;;;7.25;1.70;;;;;;;5.05;100.00;100931.06;4960387;28;20038;-87
2024/01/29 13:25:06;;;;;;;9.77;1.83;;;;;;;5.02;100.00;100929.47;4936351;28;20133;-89
2024/01/29 13:27:33;;;;;;;9.25;1.63;;;;;;;5.01;100.00;100930.41;4954730;28;20074;-91
2024/01/29 13:29:59;;;;;;;14.55;1.50;;;;;;;4.95;100.00;100928.19;4957195;28;20125;-91
2024/01/29 13:32:26;;;;;;;12.07;1.75;;;;;;;4.93;100.00;100924.81;4938265;28;20043;-89
2024/01/29 13:35:17;;;;;;;6.70;1.50;;;;;;;5.00;100.00;100926.09;4957818;28;20043;-89
2024/01/29 13:37:45;;;;;;;9.35;1.50;;;;;;;5.03;100.00;100935.56;4957907;28;20130;-92
2024/01/29 13:40:41;;;;;;;8.77;1.67;;;;;;;5.04;100.00;100930.22;4941383;28;20050;-89
2024/01/29 13:43:09;;;;;;;10.10;1.50;;;;;;;4.95;100.00;100934.25;4928229;28;20048;-88
2024/01/29 13:45:38;;;;;;;4.38;0.95;;;;;;;4.95;100.00;100934.25;4975911;28;20043;-87
2024/01/29 13:48:05;;;;;;;8.70;1.40;;;;;;;5.03;100.00;100940.81;4949342;28;20039;-87
2024/01/29 13:54:12;;;;;;;8.40;1.40;;;;;;;4.92;100.00;100937.06;4946300;28;20757;-91
2024/01/29 14:04:30;;;;;;;4.65;1.38;;;;;;;4.85;100.00;100917.44;4951833;28;20113;-91
2024/01/29 14:06:59;;;;;;;7.28;2.10;;;;;;;4.90;100.00;100919.75;4920109;28;20038;-88
2024/01/29 14:09:26;;;;;;;8.57;1.38;;;;;;;4.83;100.00;100917.53;4970931;28;20042;-88
2024/01/29 14:12:17;;;;;;;1.98;0.70;;;;;;;4.82;100.00;100915.84;4971619;28;20035;-92
2024/01/29 14:14:44;;;;;;;9.70;2.08;;;;;;;4.84;100.00;100919.19;4951477;28;20042;-86
2024/01/29 14:17:13;;;;;;;8.25;1.63;;;;;;;4.84;100.00;100910.53;4965428;28;20035;-88
2024/01/29 14:19:58;;;;;;;4.05;1.30;;;;;;;4.84;100.00;100911.34;4939613;28;20393;-90
2024/01/29 14:23:34;;;;;;;8.13;1.77;;;;;;;4.80;100.00;100902.00;4940820;28;20504;-85
2024/01/29 14:30:36;;;;;;;3.60;0.65;;;;;;;4.66;100.00;100902.00;4933355;29;20486;-91
2024/01/29 14:34:06;;;;;;;1.73;0.65;;;;;;;4.66;100.00;100922.97;4918928;28;20460;-90
2024/01/29 14:41:28;;;;;;;4.65;1.60;;;;;;;4.68;100.00;100915.84;4937180;28;20023;-92
2024/01/29 14:44:12;;;;;;;6.55;1.50;;;;;;;4.65;100.00;100908.19;4924416;29;20035;-91
2024/01/29 14:47:35;;;;;;;5.50;0.88;;;;;;;4.58;100.00;100915.56;4907583;28;20046;-91
2024/01/29 14:50:10;;;;;;;7.20;1.00;;;;;;;4.67;100.00;100925.47;4943769;28;20047;-90
2024/01/29 14:52:41;;;;;;;4.07;1.80;;;;;;;4.65;100.00;100916.06;4921672;29;20173;-91
2024/01/29 14:59:54;;;;;;;2.90;0.88;;;;;;;4.74;100.00;100918.09;4925850;29;20059;-89
2024/01/29 15:02:47;;;;;;;7.55;1.60;;;;;;;4.80;100.00;100932.59;4922800;28;20030;-92
2024/01/29 15:05:47;;;;;;;5.82;0.95;;;;;;;4.77;100.00;100919.69;4906949;28;20043;-91
2024/01/29 15:08:15;;;;;;;6.93;1.08;;;;;;;4.74;100.00;100918.09;4915483;29;20122;-90
2024/01/29 15:11:09;;;;;;;8.43;1.23;;;;;;;4.84;100.00;100928.84;4926673;28;20039;-86
2024/01/29 15:14:13;;;;;;;4.75;1.25;;;;;;;4.77;100.00;100917.91;4943848;28;20127;-90
2024/01/29 15:16:39;;;;;;;4.93;0.70;;;;;;;4.80;100.00;100915.09;4923881;29;20043;-91
2024/01/29 15:19:22;;;;;;;5.80;1.23;;;;;;;4.86;100.00;100920.91;4911849;28;20126;-89
2024/01/29 15:21:52;;;;;;;10.45;1.63;;;;;;;4.93;100.00;100928.28;4928511;28;20138;-90
2024/01/29 15:24:19;;;;;;;8.88;1.40;;;;;;;4.92;100.00;100918.72;4926817;29;20042;-88
2024/01/29 15:26:53;;;;;;;7.00;0.95;;;;;;;4.90;100.00;100918.00;4912483;29;20035;-89
2024/01/29 15:29:19;;;;;;;7.55;1.80;;;;;;;4.92;100.00;100918.72;4945624;28;20389;-89
2024/01/29 15:31:45;;;;;;;7.88;1.80;;;;;;;4.95;100.00;100929.00;4932997;29;20492;-89
2024/01/29 15:34:49;;;;;;;10.98;2.10;;;;;;;5.00;100.00;100933.97;4921704;28;20109;-90